Time;durP1;ratioP1;P1;durP2;ratioP2;P2;SDS_P1;SDS_P2;PMS_P1;PMS_P2;Temp;Humidity;BMP_temperature;BMP_pressure;BME280_temperature;BME280_humidity;BME280_pressure;Samples;Min_cycle;Max_cycle;Signal;HPM_P1;HPM_P2
2023/01/26 00:00:48;;;;;;;13.85;6.45;;;;;;;1.81;81.30;101851.94;6334659;22;20010;-85
2023/01/26 00:03:16;;;;;;;12.07;6.00;;;;;;;1.66;81.14;101838.50;6309014;22;20005;-84
2023/01/26 00:05:44;;;;;;;13.73;6.18;;;;;;;1.69;81.11;101835.69;6308825;22;20030;-84
2023/01/26 00:08:11;;;;;;;11.68;5.90;;;;;;;1.78;80.89;101834.38;6338309;22;20078;-84
2023/01/26 00:10:39;;;;;;;14.63;6.22;;;;;;;1.78;80.72;101834.38;6335644;22;20037;-83
2023/01/26 00:13:05;;;;;;;13.63;5.68;;;;;;;1.84;80.37;101839.38;6308911;22;20471;-84
2023/01/26 00:15:35;;;;;;;10.77;5.53;;;;;;;1.73;80.20;101825.78;6307917;22;20006;-82
2023/01/26 00:18:02;;;;;;;11.05;5.65;;;;;;;1.80;80.56;101848.44;6336877;22;20066;-82
2023/01/26 00:20:28;;;;;;;11.77;6.13;;;;;;;1.69;80.42;101825.06;6335512;22;20003;-83
2023/01/26 00:22:53;;;;;;;10.80;5.32;;;;;;;1.77;80.77;101839.75;6308849;22;20007;-84
2023/01/26 00:25:19;;;;;;;12.07;5.70;;;;;;;1.88;80.60;101850.69;6308856;22;20041;-83
2023/01/26 00:27:45;;;;;;;12.45;6.22;;;;;;;1.98;80.60;101849.28;6284211;22;20002;-84
2023/01/26 00:30:11;;;;;;;13.30;5.97;;;;;;;2.10;80.31;101839.84;6308365;22;20013;-84
2023/01/26 00:32:38;;;;;;;10.60;5.38;;;;;;;2.12;79.80;101827.38;6335337;22;20002;-85
2023/01/26 00:35:07;;;;;;;13.13;5.63;;;;;;;2.01;79.95;101833.22;6308890;22;19999;-83
2023/01/26 00:37:34;;;;;;;13.65;6.43;;;;;;;2.00;79.55;101807.63;6309287;22;20052;-84
2023/01/26 00:40:04;;;;;;;15.60;6.55;;;;;;;1.99;79.70;101827.16;6308128;22;20324;-83
2023/01/26 00:42:31;;;;;;;11.23;5.68;;;;;;;1.89;80.23;101821.41;6309649;22;20014;-83
2023/01/26 00:44:57;;;;;;;11.75;5.50;;;;;;;1.93;80.00;101811.53;6334492;22;20045;-83
2023/01/26 00:47:23;;;;;;;11.93;5.53;;;;;;;1.99;80.22;101805.94;6308492;22;20003;-83
2023/01/26 00:49:49;;;;;;;10.48;5.68;;;;;;;1.99;80.20;101815.66;6336427;22;20007;-83
2023/01/26 00:52:14;;;;;;;10.97;5.80;;;;;;;1.79;79.95;101783.06;6334958;22;20461;-83
2023/01/26 00:54:40;;;;;;;12.20;6.28;;;;;;;1.98;80.51;101813.97;6307679;22;20396;-83
2023/01/26 00:57:07;;;;;;;11.05;5.82;;;;;;;2.11;80.22;101820.38;6307423;22;20010;-85
2023/01/26 00:59:36;;;;;;;12.70;6.22;;;;;;;1.96;80.51;101815.81;6333232;22;20347;-82
2023/01/26 01:02:01;;;;;;;11.82;6.43;;;;;;;2.07;80.24;101808.19;6342995;22;20069;-82
2023/01/26 01:04:31;;;;;;;12.60;6.63;;;;;;;1.96;79.72;101799.91;6340352;22;20006;-83
2023/01/26 01:06:58;;;;;;;11.02;5.68;;;;;;;2.01;80.13;101793.41;6295380;22;20082;-83
2023/01/26 01:09:24;;;;;;;13.23;6.38;;;;;;;2.15;79.90;101797.16;6336630;22;20063;-82
2023/01/26 01:11:49;;;;;;;12.93;6.35;;;;;;;2.05;80.17;101796.78;6336938;22;19999;-81
2023/01/26 01:14:17;;;;;;;13.30;6.25;;;;;;;1.92;79.96;101763.84;6334079;22;20002;-83
2023/01/26 01:16:44;;;;;;;13.13;6.57;;;;;;;1.93;80.34;101765.59;6333769;22;20061;-82
2023/01/26 01:19:35;;;;;;;12.90;6.00;;;;;;;2.14;79.62;101793.66;6307695;22;20014;-84
2023/01/26 01:22:00;;;;;;;13.00;6.35;;;;;;;2.21;79.44;101788.91;6310480;22;20006;-84
2023/01/26 01:24:26;;;;;;;13.18;6.65;;;;;;;2.16;79.20;101783.84;6334720;22;20101;-84
2023/01/26 01:26:51;;;;;;;11.75;6.38;;;;;;;2.32;79.10;101791.88;6307976;22;20464;-83
2023/01/26 01:29:17;;;;;;;14.67;6.63;;;;;;;2.28;79.22;101793.81;6282378;22;20006;-83
2023/01/26 01:31:42;;;;;;;14.93;6.77;;;;;;;2.14;78.82;101766.28;6335974;22;20006;-82
2023/01/26 01:34:10;;;;;;;12.30;6.55;;;;;;;2.11;79.51;101783.22;6309464;22;20392;-84
2023/01/26 01:36:35;;;;;;;13.40;6.50;;;;;;;2.05;80.20;101783.53;6308483;22;20081;-84
2023/01/26 01:39:00;;;;;;;14.10;6.73;;;;;;;2.19;80.04;101781.00;6308238;22;20002;-84
2023/01/26 01:41:27;;;;;;;14.27;6.87;;;;;;;2.28;79.81;101785.84;6335352;22;20009;-83
2023/01/26 01:44:12;;;;;;;12.15;6.78;;;;;;;2.32;80.00;101782.09;6335445;22;20275;-84
2023/01/26 01:46:38;;;;;;;11.20;5.93;;;;;;;2.37;79.41;101773.91;6310588;22;20006;-85
2023/01/26 01:49:06;;;;;;;15.40;6.67;;;;;;;2.45;79.18;101778.78;6335675;22;20391;-84
2023/01/26 01:51:44;;;;;;;14.15;6.63;;;;;;;2.41;79.19;101770.16;6309640;22;20253;-83
2023/01/26 01:54:19;;;;;;;11.73;5.88;;;;;;;2.42;79.63;101777.16;6309640;22;20003;-84
2023/01/26 01:56:48;;;;;;;10.77;5.57;;;;;;;2.31;80.44;101768.91;6339699;22;20051;-84
2023/01/26 01:59:13;;;;;;;10.88;5.35;;;;;;;2.25;81.85;101778.06;6343982;22;20010;-84
2023/01/26 02:01:39;;;;;;;12.23;5.70;;;;;;;2.36;81.80;101768.66;6304757;22;20023;-84
2023/01/26 02:04:05;;;;;;;12.35;5.38;;;;;;;2.27;82.14;101767.34;6336313;22;20021;-83
2023/01/26 02:06:40;;;;;;;10.40;5.13;;;;;;;2.10;82.29;101744.34;6333347;22;20458;-84
2023/01/26 02:12:07;;;;;;;10.20;4.90;;;;;;;2.42;81.68;101763.03;6285719;22;20079;-83
2023/01/26 02:14:33;;;;;;;17.05;6.28;;;;;;;2.16;82.09;101741.38;6313715;22;20002;-82
2023/01/26 02:16:58;;;;;;;9.85;5.15;;;;;;;2.34;81.47;101750.16;6338380;22;20033;-83
2023/01/26 02:19:53;;;;;;;11.87;5.43;;;;;;;2.48;81.22;101746.75;6306840;22;20007;-83
2023/01/26 02:22:51;;;;;;;11.10;5.50;;;;;;;2.32;81.64;101752.06;6281376;22;20460;-85
2023/01/26 02:25:34;;;;;;;10.05;5.53;;;;;;;2.36;81.59;101750.09;6335869;22;20005;-83
2023/01/26 02:28:00;;;;;;;11.15;5.55;;;;;;;2.22;82.03;101738.38;6336384;22;20078;-84
2023/01/26 02:30:25;;;;;;;12.30;5.70;;;;;;;2.18;82.24;101718.28;6307598;22;20383;-84
2023/01/26 02:32:51;;;;;;;14.27;6.37;;;;;;;2.08;81.86;101714.38;6333056;22;20247;-85
2023/01/26 02:35:17;;;;;;;13.20;6.45;;;;;;;2.08;82.14;101722.34;6307812;22;20229;-85
2023/01/26 02:37:43;;;;;;;15.73;6.80;;;;;;;2.15;82.31;101721.09;6307682;22;20030;-83
2023/01/26 02:40:53;;;;;;;14.93;6.28;;;;;;;2.05;82.64;101723.38;6334807;22;20002;-84
2023/01/26 02:43:19;;;;;;;15.13;6.78;;;;;;;1.96;82.26;101717.69;6214683;23;20012;-86
2023/01/26 02:45:46;;;;;;;14.53;7.07;;;;;;;1.80;82.48;101707.88;6247470;22;20030;-83
2023/01/26 02:49:45;;;;;;;15.82;6.93;;;;;;;1.75;82.56;101696.63;6332783;22;20228;-82
2023/01/26 02:51:04;;;;;;;16.83;7.50;;;;;;;1.78;82.50;101708.88;6310813;22;20006;-84
2023/01/26 02:53:30;;;;;;;18.52;7.53;;;;;;;1.74;82.17;101686.97;6333609;22;20358;-83
2023/01/26 02:55:55;;;;;;;16.67;7.07;;;;;;;1.79;82.83;101722.06;6305653;22;20023;-84
2023/01/26 02:58:23;;;;;;;15.88;7.22;;;;;;;1.81;83.28;101722.00;6307161;22;20427;-84
2023/01/26 03:00:48;;;;;;;14.60;7.05;;;;;;;1.74;83.23;101716.16;6306548;22;20101;-85
2023/01/26 03:03:16;;;;;;;13.93;7.10;;;;;;;1.57;83.18;101676.34;6280943;22;20060;-84
2023/01/26 03:05:42;;;;;;;14.98;7.03;;;;;;;1.83;83.51;101715.66;6305541;22;20326;-84
2023/01/26 03:08:08;;;;;;;13.43;7.03;;;;;;;1.76;82.98;101687.75;6333361;22;20010;-82
2023/01/26 03:10:34;;;;;;;17.15;7.35;;;;;;;2.09;83.13;101710.81;6308464;22;19999;-84
2023/01/26 03:12:59;;;;;;;16.20;7.70;;;;;;;2.05;83.24;101701.28;6332649;22;20085;-86
2023/01/26 03:15:51;;;;;;;15.47;6.93;;;;;;;2.07;83.24;101688.81;6310629;22;20701;-84
2023/01/26 03:29:25;;;;;;;14.38;7.10;;;;;;;2.45;82.67;101701.81;6321274;22;20160;-83
2023/01/26 03:31:53;;;;;;;15.20;7.47;;;;;;;2.14;83.14;101670.78;6317190;22;20420;-85
2023/01/26 03:34:19;;;;;;;14.93;7.47;;;;;;;2.35;83.37;101708.56;6315476;22;20824;-84
2023/01/26 03:36:47;;;;;;;13.98;7.15;;;;;;;2.34;82.75;101705.03;6307311;22;20305;-86
2023/01/26 03:41:06;;;;;;;13.57;6.45;;;;;;;2.39;82.88;101707.44;6307863;22;20006;-84
2023/01/26 03:58:32;;;;;;;16.02;8.07;;;;;;;2.75;82.42;101710.75;6313927;22;20071;-83
2023/01/26 04:00:58;;;;;;;17.42;8.30;;;;;;;2.73;82.06;101690.53;6332870;22;20417;-84
2023/01/26 04:08:53;;;;;;;15.75;7.30;;;;;;;2.82;82.10;101689.19;6310392;22;20021;-83
2023/01/26 04:11:19;;;;;;;16.35;8.27;;;;;;;2.91;81.78;101691.31;6331634;22;20092;-84
2023/01/26 04:22:00;;;;;;;15.63;8.13;;;;;;;3.03;81.60;101692.44;6333743;22;20017;-82
2023/01/26 04:24:25;;;;;;;16.33;8.82;;;;;;;2.98;81.21;101673.25;6334781;22;20006;-81
2023/01/26 04:26:51;;;;;;;22.37;9.83;;;;;;;3.07;81.18;101683.34;6314663;22;20003;-83
2023/01/26 04:29:17;;;;;;;19.00;8.93;;;;;;;3.23;81.05;101693.94;6314963;22;20237;-83
2023/01/26 04:31:44;;;;;;;16.85;8.73;;;;;;;3.24;81.15;101690.34;6334899;22;20002;-82
2023/01/26 04:34:13;;;;;;;21.85;10.18;;;;;;;3.19;80.84;101681.78;6281019;22;20007;-82
2023/01/26 04:36:39;;;;;;;18.77;9.75;;;;;;;3.14;80.95;101674.94;6340270;22;19994;-83
2023/01/26 04:39:07;;;;;;;19.42;9.70;;;;;;;3.29;80.76;101688.28;6321274;22;20044;-84
2023/01/26 04:41:33;;;;;;;20.35;10.45;;;;;;;3.22;80.54;101676.28;6312692;22;20011;-83
2023/01/26 04:43:58;;;;;;;22.08;10.85;;;;;;;3.13;80.90;101673.19;6284783;22;20432;-83
2023/01/26 04:46:26;;;;;;;19.08;10.10;;;;;;;3.16;80.93;101682.78;6256659;22;20021;-82
2023/01/26 04:48:53;;;;;;;28.05;13.68;;;;;;;3.07;81.50;101673.56;6308316;22;20003;-84
2023/01/26 04:51:19;;;;;;;24.23;12.65;;;;;;;3.12;81.03;101687.44;6308101;22;20007;-84
2023/01/26 04:53:45;;;;;;;23.83;12.20;;;;;;;3.11;80.88;101679.53;6308083;22;20054;-83
2023/01/26 04:56:22;;;;;;;25.40;12.70;;;;;;;3.14;80.71;101671.41;6336524;22;20143;-83
2023/01/26 04:58:49;;;;;;;22.42;12.43;;;;;;;3.06;80.58;101677.16;6307125;22;20064;-83
2023/01/26 05:01:14;;;;;;;24.70;11.95;;;;;;;3.02;80.45;101670.31;6308104;22;20411;-82
2023/01/26 05:03:41;;;;;;;23.13;11.80;;;;;;;2.83;80.94;101666.97;6283429;22;20002;-83
2023/01/26 05:06:06;;;;;;;22.48;11.35;;;;;;;2.90;81.04;101671.00;6283194;22;20010;-83
2023/01/26 05:08:32;;;;;;;24.53;12.10;;;;;;;2.91;81.05;101678.88;6307102;22;19998;-85
2023/01/26 05:10:57;;;;;;;30.53;13.93;;;;;;;2.83;81.17;101674.94;6308276;22;20289;-83
2023/01/26 05:13:23;;;;;;;29.27;13.20;;;;;;;2.76;81.61;101669.13;6309809;22;20312;-83
2023/01/26 05:15:51;;;;;;;43.17;20.33;;;;;;;2.73;81.83;101670.16;6283996;22;20237;-84
2023/01/26 05:18:19;;;;;;;31.23;15.45;;;;;;;2.67;82.16;101670.50;6284851;22;20034;-83
2023/01/26 05:20:45;;;;;;;27.67;13.70;;;;;;;2.63;81.99;101671.63;6314481;22;20029;-85
2023/01/26 05:23:11;;;;;;;23.40;12.27;;;;;;;2.64;81.85;101673.31;6286459;22;20122;-84
2023/01/26 05:25:37;;;;;;;26.33;12.13;;;;;;;2.37;82.67;101672.19;6256553;22;20306;-84
2023/01/26 05:28:06;;;;;;;28.17;12.88;;;;;;;2.42;82.92;101675.44;6319188;22;20288;-87
2023/01/26 05:30:33;;;;;;;26.67;13.63;;;;;;;2.09;83.16;101642.69;6305047;22;20021;-86
2023/01/26 05:33:02;;;;;;;29.40;14.43;;;;;;;2.21;83.53;101664.19;6300983;22;20019;-89
2023/01/26 05:36:02;;;;;;;28.55;13.35;;;;;;;2.21;83.28;101666.84;6312795;22;20017;-88
2023/01/26 05:38:29;;;;;;;25.42;12.98;;;;;;;2.00;83.95;101650.28;6334265;22;20051;-88
2023/01/26 05:41:00;;;;;;;33.53;14.63;;;;;;;2.09;84.18;101671.88;6336827;22;19999;-88
2023/01/26 05:43:49;;;;;;;28.15;14.05;;;;;;;1.90;84.30;101655.22;6310530;22;20002;-83
2023/01/26 05:46:15;;;;;;;33.55;14.77;;;;;;;2.10;84.39;101675.38;6355304;22;20140;-88
2023/01/26 05:48:43;;;;;;;33.05;15.45;;;;;;;2.09;84.43;101668.38;6305638;22;20009;-88
2023/01/26 05:51:13;;;;;;;29.98;14.75;;;;;;;2.11;84.25;101670.00;6326544;22;20034;-86
2023/01/26 05:53:43;;;;;;;40.75;14.65;;;;;;;1.94;85.29;101672.66;6356366;22;20014;-88
2023/01/26 05:56:30;;;;;;;30.40;13.48;;;;;;;1.86;85.39;101682.84;6317292;22;20048;-88
2023/01/26 05:58:58;;;;;;;36.05;13.18;;;;;;;1.83;85.73;101680.34;6355394;22;20033;-89
2023/01/26 06:01:53;;;;;;;24.23;11.90;;;;;;;1.75;85.71;101662.16;6328472;22;20026;-88
2023/01/26 06:04:25;;;;;;;28.13;12.73;;;;;;;1.61;85.91;101654.06;6357366;22;20003;-88
2023/01/26 06:07:13;;;;;;;26.48;12.45;;;;;;;1.65;86.24;101645.03;6356219;22;20312;-89
2023/01/26 06:09:59;;;;;;;25.88;12.50;;;;;;;1.96;85.69;101661.97;6349094;22;20025;-88
2023/01/26 06:12:34;;;;;;;22.20;11.38;;;;;;;1.99;85.08;101645.91;6353127;22;20021;-88
2023/01/26 06:15:02;;;;;;;27.63;12.50;;;;;;;2.05;85.28;101659.69;6330368;22;20025;-88
2023/01/26 06:17:30;;;;;;;25.80;11.60;;;;;;;2.02;85.04;101638.66;6304447;22;20044;-88
2023/01/26 06:20:17;;;;;;;24.23;11.38;;;;;;;2.13;84.65;101663.72;6303087;22;20013;-89
2023/01/26 06:22:46;;;;;;;25.90;11.82;;;;;;;2.13;84.44;101637.22;6328953;22;20010;-87
2023/01/26 06:25:16;;;;;;;23.85;11.70;;;;;;;2.24;84.08;101659.56;6303643;22;20031;-87
2023/01/26 06:27:42;;;;;;;24.05;11.30;;;;;;;2.39;83.82;101649.06;6278654;22;20020;-87
2023/01/26 06:30:12;;;;;;;26.45;13.80;;;;;;;2.30;84.18;101634.50;6327022;22;20002;-88
2023/01/26 06:32:52;;;;;;;31.52;15.20;;;;;;;2.60;83.73;101650.56;6305759;22;20014;-87
2023/01/26 06:35:19;;;;;;;25.92;12.80;;;;;;;2.74;82.73;101645.31;6302847;22;20011;-87
2023/01/26 06:38:08;;;;;;;29.20;14.32;;;;;;;2.85;82.24;101630.56;6303373;22;20010;-87
2023/01/26 06:40:36;;;;;;;27.70;12.80;;;;;;;2.72;82.40;101625.09;6329964;22;20037;-88
2023/01/26 06:43:01;;;;;;;26.65;11.95;;;;;;;3.08;81.84;101654.00;6277503;22;20037;-87
2023/01/26 06:45:34;;;;;;;;;;;;;;;3.21;81.34;101669.25;6326333;22;20075;-86
2023/01/26 06:48:00;;;;;;;23.88;12.15;;;;;;;3.24;81.04;101642.50;6351763;22;20005;-88
2023/01/26 06:50:33;;;;;;;22.77;11.77;;;;;;;3.48;80.42;101638.38;6277347;22;20014;-88
2023/01/26 06:53:30;;;;;;;24.52;12.32;;;;;;;3.83;79.54;101666.50;6330945;22;20021;-88
2023/01/26 06:55:59;;;;;;;24.70;12.52;;;;;;;4.03;78.79;101652.84;6325002;22;20129;-88
2023/01/26 06:58:46;;;;;;;27.75;12.32;;;;;;;4.25;77.76;101649.69;6275375;22;20120;-87
2023/01/26 07:01:25;;;;;;;27.90;12.55;;;;;;;4.56;76.38;101645.91;6324408;22;20068;-87
2023/01/26 07:03:54;;;;;;;25.70;12.43;;;;;;;4.65;75.51;101656.00;6347279;22;20003;-88
2023/01/26 07:06:21;;;;;;;23.33;11.38;;;;;;;4.58;74.75;101637.84;6274226;22;20098;-87
2023/01/26 07:09:17;;;;;;;24.00;11.20;;;;;;;4.96;73.78;101621.16;6333999;22;20007;-87
2023/01/26 07:11:43;;;;;;;23.52;10.80;;;;;;;5.60;73.16;101638.19;6298182;22;20055;-88
2023/01/26 07:14:13;;;;;;;19.70;11.27;;;;;;;7.10;68.31;101636.47;6331180;22;20041;-88
2023/01/26 07:16:45;;;;;;;18.15;10.68;;;;;;;9.23;61.99;101610.69;6308906;22;20026;-87
2023/01/26 07:19:15;;;;;;;19.88;10.88;;;;;;;10.96;55.34;101603.56;6362962;22;20052;-87
2023/01/26 07:21:42;;;;;;;19.38;10.90;;;;;;;11.69;52.05;101600.38;6309211;22;20014;-85
2023/01/26 07:24:10;;;;;;;20.98;10.60;;;;;;;11.45;52.29;101618.84;6305675;22;20034;-88
2023/01/26 07:26:39;;;;;;;22.05;11.80;;;;;;;11.29;52.39;101585.28;6304439;22;20086;-88
2023/01/26 09:16:28;;;;;;;37.30;19.88;;;;;;;6.90;70.22;101529.16;6338505;22;20019;-83
2023/01/26 09:18:54;;;;;;;42.45;20.67;;;;;;;6.87;70.55;101544.59;6336140;22;20011;-86
2023/01/26 09:21:40;;;;;;;39.30;21.17;;;;;;;6.46;71.66;101497.75;6312218;22;20113;-91
2023/01/26 09:24:10;;;;;;;42.08;23.73;;;;;;;6.39;72.56;101508.06;6336430;22;20002;-85
2023/01/26 09:27:01;;;;;;;48.13;25.40;;;;;;;6.12;73.42;101478.91;6322650;22;20042;-86
2023/01/26 09:29:59;;;;;;;53.20;27.15;;;;;;;6.21;74.14;101496.06;6342873;22;20018;-87
2023/01/26 09:32:24;;;;;;;52.67;28.30;;;;;;;6.18;74.81;101491.81;6319569;22;20043;-86
2023/01/26 09:34:52;;;;;;;62.55;30.23;;;;;;;5.75;75.93;101444.16;6297168;22;20006;-86
2023/01/26 09:37:20;;;;;;;64.05;31.50;;;;;;;5.90;76.51;101476.91;6352301;22;20014;-85
2023/01/26 09:39:47;;;;;;;83.45;37.42;;;;;;;5.66;77.42;101460.81;6315409;22;20335;-87
2023/01/26 09:42:34;;;;;;;69.15;32.72;;;;;;;5.86;78.24;101505.63;6313379;22;20321;-88
2023/01/26 09:45:11;;;;;;;55.88;28.25;;;;;;;5.43;78.55;101428.66;6342948;22;20052;-87
2023/01/26 09:48:13;;;;;;;57.08;28.67;;;;;;;5.68;79.29;101496.25;6290102;22;20034;-87
2023/01/26 09:50:56;;;;;;;53.72;28.08;;;;;;;5.59;79.80;101475.56;6345300;22;20002;-88
2023/01/26 09:53:26;;;;;;;56.13;28.90;;;;;;;5.69;79.67;101476.63;6321839;22;20180;-86
2023/01/26 09:55:57;;;;;;;49.83;27.05;;;;;;;5.57;79.35;101446.34;6324616;22;20067;-86
2023/01/26 09:58:38;;;;;;;51.25;26.70;;;;;;;5.69;79.29;101434.78;6293897;22;20006;-88
2023/01/26 10:01:10;;;;;;;107.57;40.95;;;;;;;5.79;79.68;101431.47;6293185;22;20006;-85
2023/01/26 10:04:12;;;;;;;53.85;28.35;;;;;;;5.96;79.32;101433.78;6295129;22;20006;-86
2023/01/26 10:06:41;;;;;;;54.28;27.35;;;;;;;5.83;80.38;101427.59;6343715;22;20007;-88
2023/01/26 10:09:26;;;;;;;49.30;24.05;;;;;;;5.77;79.88;101396.03;6289786;22;19999;-86
2023/01/26 10:12:00;;;;;;;40.60;20.90;;;;;;;5.83;81.01;101403.56;6316229;22;20092;-86
2023/01/26 10:14:39;;;;;;;44.70;23.98;;;;;;;5.87;82.52;101434.41;6317016;22;20062;-86
2023/01/26 10:17:07;;;;;;;45.85;23.42;;;;;;;5.72;82.46;101402.53;6312419;22;20015;-85
2023/01/26 10:19:44;;;;;;;46.47;23.80;;;;;;;6.04;83.07;101434.06;6292897;22;20026;-88
2023/01/26 10:22:39;;;;;;;32.35;16.50;;;;;;;6.00;83.33;101392.56;6347683;22;20028;-88
2023/01/26 10:25:31;;;;;;;22.50;11.73;;;;;;;6.37;83.71;101415.63;6306671;22;20014;-85
2023/01/26 10:28:21;;;;;;;17.25;9.02;;;;;;;6.24;83.07;101373.00;6320393;22;20071;-89
2023/01/26 10:30:51;;;;;;;19.90;7.93;;;;;;;6.51;81.56;101373.59;6324103;22;20006;-85
2023/01/26 10:33:42;;;;;;;14.25;7.05;;;;;;;6.85;81.12;101394.19;6302726;22;20003;-92
2023/01/26 10:36:16;;;;;;;18.58;7.55;;;;;;;6.70;79.93;101324.06;6356657;22;20018;-89
2023/01/26 10:38:46;;;;;;;22.27;8.40;;;;;;;6.91;79.39;101322.38;6299531;22;20006;-88
2023/01/26 10:44:29;;;;;;;23.37;7.80;;;;;;;7.72;77.84;101368.50;6349902;22;20019;-88
2023/01/26 10:47:24;;;;;;;18.95;7.53;;;;;;;7.90;77.71;101370.66;6327607;22;20241;-85
2023/01/26 10:49:52;;;;;;;17.98;7.63;;;;;;;7.62;77.06;101343.47;6328518;22;20007;-89
2023/01/26 10:52:25;;;;;;;15.75;7.45;;;;;;;7.88;75.91;101375.28;6329138;22;19999;-86
2023/01/26 10:55:13;;;;;;;14.40;7.13;;;;;;;7.55;75.72;101328.88;6352548;22;20059;-88
2023/01/26 10:57:56;;;;;;;13.80;6.18;;;;;;;7.43;75.55;101345.94;6340819;22;20003;-87
2023/01/26 11:00:32;;;;;;;14.32;7.07;;;;;;;7.57;75.89;101353.69;6306383;22;20041;-83
2023/01/26 11:03:28;;;;;;;15.45;6.65;;;;;;;7.67;75.42;101360.00;6352993;22;19999;-87
2023/01/26 11:06:14;;;;;;;14.07;6.10;;;;;;;7.35;75.63;101314.44;6353960;22;20002;-87
2023/01/26 11:08:46;;;;;;;14.95;6.65;;;;;;;7.48;74.52;101319.66;6306220;22;20014;-89
2023/01/26 11:11:35;;;;;;;13.20;5.93;;;;;;;7.47;74.72;101313.47;6283285;22;20002;-89
2023/01/26 11:14:14;;;;;;;14.13;6.40;;;;;;;7.37;74.91;101317.84;6344964;22;20066;-84
2023/01/26 11:16:47;;;;;;;11.38;6.57;;;;;;;7.40;75.33;101323.81;6296635;22;20435;-87
2023/01/26 11:19:43;;;;;;;14.95;6.38;;;;;;;7.41;75.50;101346.06;6296610;22;20089;-86
2023/01/26 11:22:35;;;;;;;14.75;6.50;;;;;;;7.46;75.49;101364.41;6320920;22;20010;-85
2023/01/26 11:25:49;;;;;;;11.63;6.38;;;;;;;7.38;75.62;101335.59;6360031;22;20086;-85
2023/01/26 11:28:52;;;;;;;13.90;7.32;;;;;;;7.14;76.53;101323.22;6350534;22;20007;-86
2023/01/26 11:32:12;;;;;;;12.80;5.70;;;;;;;7.17;75.68;101343.53;6349843;22;20003;-88
2023/01/26 11:35:04;;;;;;;13.48;6.50;;;;;;;7.27;74.80;101344.47;6343782;22;20033;-86
2023/01/26 11:38:08;;;;;;;16.00;6.75;;;;;;;7.21;74.64;101333.41;6320148;22;19999;-86
2023/01/26 11:40:45;;;;;;;11.07;5.75;;;;;;;7.40;74.56;101350.56;6289254;22;20052;-86
2023/01/26 11:43:22;;;;;;;13.93;6.07;;;;;;;7.27;74.26;101327.59;6322186;22;20387;-87
2023/01/26 11:46:25;;;;;;;11.25;5.22;;;;;;;7.34;73.71;101337.66;6320683;22;20018;-87
2023/01/26 11:49:33;;;;;;;15.23;7.03;;;;;;;7.38;72.90;101325.75;6348528;22;20002;-88
2023/01/26 11:52:17;;;;;;;12.30;6.78;;;;;;;7.47;73.19;101301.88;6348563;22;20002;-87
2023/01/26 11:55:07;;;;;;;17.40;6.72;;;;;;;7.78;71.85;101325.16;6298268;22;20006;-86
2023/01/26 11:57:42;;;;;;;13.30;7.00;;;;;;;7.96;71.35;101329.97;6324109;22;20007;-87
2023/01/26 12:00:12;;;;;;;10.98;6.30;;;;;;;8.08;70.34;101339.69;6321850;22;20059;-87
2023/01/26 12:02:40;;;;;;;14.90;6.30;;;;;;;7.98;70.20;101307.47;6353791;22;19994;-88
2023/01/26 12:05:44;;;;;;;13.02;5.97;;;;;;;7.95;70.25;101301.50;6357580;22;20056;-87
2023/01/26 12:08:28;;;;;;;14.35;7.57;;;;;;;8.24;70.46;101324.03;6328145;22;20417;-88
2023/01/26 12:11:24;;;;;;;11.73;7.03;;;;;;;8.14;69.50;101312.34;6327541;22;20009;-88
2023/01/26 12:14:25;;;;;;;13.35;6.60;;;;;;;8.36;69.43;101319.44;6325100;22;20014;-87
2023/01/26 12:17:32;;;;;;;13.65;7.28;;;;;;;8.13;69.81;101277.69;6319803;22;20010;-88
2023/01/26 12:20:38;;;;;;;13.20;6.68;;;;;;;8.02;68.62;101292.81;6323197;22;20018;-86
2023/01/26 12:23:17;;;;;;;13.13;6.40;;;;;;;8.07;69.10;101316.53;6222464;23;20019;-89
2023/01/26 12:26:11;;;;;;;11.23;5.93;;;;;;;8.12;68.90;101292.88;6319184;22;20007;-86
2023/01/26 12:28:48;;;;;;;13.00;6.35;;;;;;;7.99;69.08;101284.22;6332741;22;20030;-89
2023/01/26 12:31:26;;;;;;;13.77;6.07;;;;;;;8.06;69.16;101287.22;6330125;22;20002;-88
2023/01/26 12:33:56;;;;;;;15.13;6.88;;;;;;;7.97;69.58;101268.25;6328535;22;20017;-86
2023/01/26 12:36:52;;;;;;;15.35;6.80;;;;;;;8.17;69.35;101285.34;6303484;22;20006;-86
2023/01/26 12:39:50;;;;;;;10.50;6.32;;;;;;;8.03;69.46;101272.28;6326887;22;20010;-87
2023/01/26 12:42:48;;;;;;;14.63;6.78;;;;;;;8.28;68.97;101299.63;6312217;22;20019;-88
2023/01/26 12:45:27;;;;;;;13.75;6.22;;;;;;;8.39;69.39;101299.56;6325823;22;20035;-88
2023/01/26 12:48:30;;;;;;;12.88;5.80;;;;;;;8.08;69.68;101259.34;6312600;22;20033;-87
2023/01/26 12:51:42;;;;;;;15.57;6.38;;;;;;;8.20;70.63;101290.44;6305573;22;20164;-88
2023/01/26 12:54:58;;;;;;;12.57;6.72;;;;;;;8.07;71.98;101257.63;6353213;22;20014;-88
2023/01/26 12:57:34;;;;;;;14.38;6.40;;;;;;;8.16;71.91;101256.84;6351069;22;20066;-87
2023/01/26 13:00:22;;;;;;;12.15;5.53;;;;;;;8.17;72.50;101293.38;6327425;22;20342;-85
2023/01/26 13:02:59;;;;;;;11.23;5.38;;;;;;;8.12;72.03;101275.97;6323122;22;20003;-88
2023/01/26 13:06:00;;;;;;;12.85;6.03;;;;;;;8.03;71.97;101280.31;6310916;22;20011;-88
2023/01/26 13:08:44;;;;;;;14.32;5.40;;;;;;;7.94;73.09;101271.22;6298595;22;20021;-90
2023/01/26 13:11:38;;;;;;;17.83;6.10;;;;;;;8.06;74.04;101266.66;6310726;22;20007;-90
2023/01/26 13:14:52;;;;;;;18.23;9.43;;;;;;;8.07;74.72;101252.25;6315067;22;20054;-88
2023/01/26 13:17:49;;;;;;;11.90;7.13;;;;;;;7.83;75.62;101213.19;6343625;22;20022;-87
2023/01/26 13:20:32;;;;;;;17.70;6.20;;;;;;;7.76;76.00;101195.97;6308596;22;20014;-88
2023/01/26 13:23:00;;;;;;;15.20;6.80;;;;;;;8.03;76.67;101226.75;6360897;22;20018;-90
2023/01/26 13:25:54;;;;;;;14.32;6.93;;;;;;;7.90;76.56;101197.47;6330053;22;20094;-87
2023/01/26 13:28:32;;;;;;;16.13;6.43;;;;;;;7.96;76.06;101188.06;6341427;22;20005;-86
2023/01/26 13:31:10;;;;;;;12.98;6.40;;;;;;;7.88;75.72;101190.56;6337647;22;20043;-88
2023/01/26 13:36:47;;;;;;;15.27;6.67;;;;;;;7.91;75.29;101188.44;6351386;22;20029;-90
2023/01/26 13:40:12;;;;;;;11.75;5.93;;;;;;;7.89;74.62;101179.72;6362105;22;20248;-89
2023/01/26 13:45:38;;;;;;;12.97;6.20;;;;;;;8.11;75.37;101210.84;6353774;22;20074;-88
2023/01/26 13:48:13;;;;;;;18.15;6.47;;;;;;;7.81;75.43;101175.00;6352823;22;20272;-86
2023/01/26 13:50:43;;;;;;;16.42;6.60;;;;;;;7.91;76.29;101217.06;6304194;22;20010;-88
2023/01/26 13:53:40;;;;;;;16.40;6.20;;;;;;;7.79;76.13;101178.78;6361205;22;20059;-88
2023/01/26 13:56:22;;;;;;;14.85;6.10;;;;;;;7.80;76.69;101194.72;6311669;22;20007;-88
2023/01/26 13:58:51;;;;;;;14.40;6.68;;;;;;;7.59;77.03;101165.28;6308717;22;20005;-88
2023/01/26 14:01:28;;;;;;;21.35;7.47;;;;;;;7.60;77.08;101177.66;6335103;22;20073;-90
2023/01/26 14:04:13;;;;;;;14.02;6.82;;;;;;;7.67;77.07;101169.97;6362796;22;19998;-85
2023/01/26 14:10:06;;;;;;;13.82;7.40;;;;;;;7.54;77.44;101156.78;6292766;22;21107;-90
2023/01/26 14:12:55;;;;;;;17.63;7.60;;;;;;;7.69;77.12;101172.53;6307614;22;20026;-88
2023/01/26 14:15:34;;;;;;;15.05;6.43;;;;;;;7.50;76.77;101167.88;6331795;22;19995;-87
2023/01/26 14:20:39;;;;;;;18.40;7.88;;;;;;;7.38;77.95;101165.25;6342205;22;20019;-89
2023/01/26 14:23:19;;;;;;;13.18;6.72;;;;;;;7.59;77.63;101188.50;6356655;22;20061;-89
2023/01/26 14:26:09;;;;;;;18.23;7.20;;;;;;;7.36;77.79;101159.16;6368061;22;20062;-90
2023/01/26 14:28:56;;;;;;;15.50;7.47;;;;;;;7.41;77.89;101164.13;6341946;22;20026;-88
2023/01/26 14:31:28;;;;;;;14.57;6.00;;;;;;;7.37;77.62;101163.56;6365793;22;20003;-88
2023/01/26 15:10:31;;;;;;;15.17;7.00;;;;;;;7.15;77.20;101171.66;6325357;22;20018;-92
2023/01/26 15:41:16;;;;;;;21.25;6.75;;;;;;;7.13;77.07;101123.63;6314855;22;20041;-92
2023/01/26 17:10:47;;;;;;;9.00;4.93;;;;;;;7.14;75.06;101071.00;6291534;22;20247;-89
2023/01/26 17:13:14;;;;;;;17.30;5.78;;;;;;;7.16;75.21;101064.56;6309503;22;20006;-87
2023/01/26 17:15:45;;;;;;;11.10;5.43;;;;;;;6.91;75.90;101039.03;6309269;22;20034;-89
2023/01/26 17:18:23;;;;;;;12.05;5.00;;;;;;;7.19;75.64;101052.75;6303877;22;20010;-90
2023/01/26 17:20:49;;;;;;;11.75;5.30;;;;;;;6.92;75.89;101013.16;6363230;22;20011;-89